Time;durP1;ratioP1;P1;durP2;ratioP2;P2;SDS_P1;SDS_P2;PMS_P1;PMS_P2;Temp;Humidity;BMP_temperature;BMP_pressure;BME280_temperature;BME280_humidity;BME280_pressure;Samples;Min_cycle;Max_cycle;Signal;HPM_P1;HPM_P2
2023/06/12 00:00:20;;;;;;;9.03;6.23;;;;;;;18.33;94.12;94625.16;4990376;28;20195;-75
2023/06/12 00:02:45;;;;;;;13.20;7.03;;;;;;;18.48;93.40;94623.47;5005702;28;20207;-76
2023/06/12 00:05:11;;;;;;;14.13;7.00;;;;;;;18.42;93.58;94619.13;4989718;28;20230;-75
2023/06/12 00:07:36;;;;;;;14.37;6.77;;;;;;;18.69;92.61;94629.69;5006361;28;20649;-75
2023/06/12 00:10:02;;;;;;;11.67;7.30;;;;;;;18.73;92.47;94626.25;4989926;28;20206;-76
2023/06/12 00:12:28;;;;;;;11.97;7.00;;;;;;;18.88;91.85;94625.53;5006071;28;20654;-75
2023/06/12 00:14:54;;;;;;;10.43;7.33;;;;;;;18.76;92.55;94630.25;4990095;28;20253;-76
2023/06/12 00:17:19;;;;;;;12.10;7.37;;;;;;;18.76;92.97;94627.59;4989452;28;20219;-76
2023/06/12 00:19:45;;;;;;;15.20;7.37;;;;;;;18.74;92.92;94633.16;5005389;28;20221;-76
2023/06/12 00:22:10;;;;;;;14.00;7.40;;;;;;;18.84;92.97;94629.78;5021962;28;20300;-76
2023/06/12 00:24:36;;;;;;;12.97;7.20;;;;;;;18.81;92.55;94625.78;5020739;28;20230;-76
2023/06/12 00:27:02;;;;;;;12.10;7.00;;;;;;;18.65;93.38;94618.78;5006059;28;20211;-76
2023/06/12 00:29:27;;;;;;;13.07;7.30;;;;;;;18.64;93.44;94625.16;5004496;28;20211;-76
2023/06/12 00:31:53;;;;;;;12.63;7.37;;;;;;;18.46;94.76;94620.25;4988176;28;20618;-76
2023/06/12 00:34:18;;;;;;;10.80;7.30;;;;;;;18.37;95.38;94615.66;5005501;28;20191;-76
2023/06/12 00:36:44;;;;;;;11.13;7.17;;;;;;;18.35;95.66;94615.91;5006111;28;20644;-76
2023/06/12 00:39:10;;;;;;;11.70;6.95;;;;;;;18.45;95.08;94618.63;5005523;28;20197;-75
2023/06/12 00:41:35;;;;;;;13.60;6.93;;;;;;;18.43;95.48;94612.00;4989085;28;20223;-76
2023/06/12 00:44:01;;;;;;;11.53;7.33;;;;;;;18.35;95.34;94615.91;5022375;28;20214;-76
2023/06/12 00:46:26;;;;;;;10.60;7.63;;;;;;;18.18;96.24;94625.84;4989029;28;20211;-75
2023/06/12 00:48:52;;;;;;;12.13;7.47;;;;;;;18.27;95.91;94621.66;5021674;28;20806;-76
2023/06/12 00:51:17;;;;;;;12.35;6.90;;;;;;;18.21;96.38;94625.34;5005481;28;20234;-76
2023/06/12 00:53:42;;;;;;;13.65;7.32;;;;;;;18.40;95.23;94629.19;4989466;28;20241;-76
2023/06/12 00:56:08;;;;;;;9.87;6.83;;;;;;;18.32;95.67;94629.66;4990213;28;20222;-76
2023/06/12 00:58:33;;;;;;;10.93;6.93;;;;;;;18.45;95.27;94629.25;5006479;28;20194;-75
2023/06/12 01:00:59;;;;;;;11.03;6.97;;;;;;;18.45;95.21;94623.94;4971293;28;20245;-75
2023/06/12 01:03:24;;;;;;;11.85;6.82;;;;;;;18.30;95.54;94631.78;5006492;28;20215;-76
2023/06/12 01:05:50;;;;;;;10.57;6.67;;;;;;;18.39;95.84;94624.16;5005909;28;20218;-76
2023/06/12 01:08:32;;;;;;;11.23;7.37;;;;;;;18.46;95.56;94622.13;4988750;28;20969;-76
2023/06/12 01:11:04;;;;;;;13.37;7.43;;;;;;;18.43;95.46;94619.94;4988874;28;20938;-76
2023/06/12 01:13:30;;;;;;;10.13;7.13;;;;;;;18.41;95.72;94612.25;5005059;28;20273;-72
2023/06/12 01:15:56;;;;;;;12.07;7.43;;;;;;;18.35;96.09;94618.56;4972740;28;20306;-71
2023/06/12 01:18:21;;;;;;;12.87;7.17;;;;;;;18.34;96.48;94621.47;5004975;28;20875;-71
2023/06/12 01:20:51;;;;;;;13.73;7.90;;;;;;;18.15;97.27;94618.41;5004855;28;20215;-71
2023/06/12 01:23:47;;;;;;;13.43;7.28;;;;;;;18.00;98.79;94615.66;5004710;28;20243;-71
2023/06/12 01:26:26;;;;;;;12.02;7.50;;;;;;;18.32;97.64;94607.69;5005930;28;20731;-71
2023/06/12 01:29:20;;;;;;;14.52;7.70;;;;;;;18.36;96.73;94611.41;5020735;28;20286;-72
2023/06/12 01:32:07;;;;;;;13.93;7.63;;;;;;;18.41;95.73;94612.25;5004076;28;20277;-72
2023/06/12 01:34:50;;;;;;;10.90;7.30;;;;;;;18.47;95.60;94608.59;4986897;28;20194;-72
2023/06/12 01:37:50;;;;;;;14.00;7.80;;;;;;;18.32;97.23;94607.69;5005485;28;20210;-72
2023/06/12 01:40:15;;;;;;;13.77;7.40;;;;;;;18.38;96.57;94612.75;4987214;28;20215;-70
2023/06/12 01:42:41;;;;;;;15.30;7.60;;;;;;;18.39;96.48;94618.88;5003961;28;20214;-72
2023/06/12 01:45:07;;;;;;;11.95;7.55;;;;;;;18.43;96.60;94618.09;5008534;28;20229;-71
2023/06/12 01:47:32;;;;;;;11.93;7.20;;;;;;;18.30;96.90;94618.53;4991874;28;20214;-70
2023/06/12 01:49:58;;;;;;;14.70;7.70;;;;;;;18.20;97.91;94618.44;4991736;28;20191;-70
2023/06/12 01:52:23;;;;;;;15.87;7.73;;;;;;;18.28;97.48;94625.13;5008082;28;20203;-71
2023/06/12 01:54:49;;;;;;;14.10;7.40;;;;;;;18.37;97.46;94616.44;4991356;28;20199;-70
2023/06/12 01:57:19;;;;;;;12.20;7.13;;;;;;;18.42;96.49;94613.84;4991481;28;20955;-70
2023/06/12 01:59:45;;;;;;;11.73;7.40;;;;;;;18.45;96.44;94617.84;4991693;28;20191;-71
2023/06/12 02:02:11;;;;;;;14.23;7.53;;;;;;;18.43;96.16;94623.41;4991435;28;20253;-71
2023/06/12 02:04:36;;;;;;;14.30;7.57;;;;;;;18.47;95.57;94621.84;5007303;28;20226;-71
2023/06/12 02:07:02;;;;;;;13.33;7.40;;;;;;;18.56;95.44;94628.28;4991554;28;20226;-71
2023/06/12 02:09:27;;;;;;;12.90;7.53;;;;;;;18.28;97.11;94627.78;5006969;28;20714;-69
2023/06/12 02:11:53;;;;;;;13.77;7.80;;;;;;;18.34;96.84;94626.78;5007048;28;20207;-71
2023/06/12 02:14:18;;;;;;;10.93;7.27;;;;;;;18.41;96.33;94622.88;4991473;28;20179;-70
2023/06/12 02:16:45;;;;;;;17.40;7.77;;;;;;;18.38;96.48;94623.38;4990567;28;20672;-71
2023/06/12 02:19:12;;;;;;;14.23;7.60;;;;;;;18.38;96.13;94622.56;4991089;28;20595;-71
2023/06/12 02:21:37;;;;;;;14.43;8.17;;;;;;;18.32;96.54;94637.63;5006914;28;20301;-71
2023/06/12 02:24:03;;;;;;;15.30;7.60;;;;;;;18.35;96.49;94631.00;5006924;28;20447;-70
2023/06/12 02:26:29;;;;;;;19.60;8.40;;;;;;;18.34;96.33;94627.56;5006991;28;20314;-70
2023/06/12 02:29:08;;;;;;;15.53;7.73;;;;;;;18.38;96.21;94633.97;4990924;28;20187;-71
2023/06/12 02:31:34;;;;;;;13.07;8.20;;;;;;;18.37;95.82;94634.19;4990254;28;20214;-70
2023/06/12 02:33:59;;;;;;;13.03;7.90;;;;;;;18.46;95.11;94630.06;5007041;28;20248;-71
2023/06/12 02:36:25;;;;;;;14.37;8.63;;;;;;;18.40;95.82;94633.69;4990925;28;20242;-71
2023/06/12 02:38:51;;;;;;;15.40;8.57;;;;;;;18.24;96.22;94630.16;4990842;28;20214;-70
2023/06/12 02:41:17;;;;;;;14.03;8.77;;;;;;;18.00;98.13;94637.66;5006276;28;20227;-70
2023/06/12 02:43:42;;;;;;;15.93;8.50;;;;;;;18.05;98.05;94640.34;4991351;28;20207;-70
2023/06/12 02:46:08;;;;;;;11.87;7.97;;;;;;;18.22;96.55;94645.50;4974741;28;20600;-71
2023/06/12 02:48:33;;;;;;;15.07;8.47;;;;;;;18.03;97.44;94645.06;5007880;28;20210;-71
2023/06/12 02:50:58;;;;;;;10.70;7.80;;;;;;;17.93;98.33;94652.13;4990584;28;20238;-70
2023/06/12 02:53:24;;;;;;;13.20;7.80;;;;;;;18.03;98.55;94650.38;4988932;28;20183;-71
2023/06/12 02:55:51;;;;;;;11.77;7.77;;;;;;;18.24;96.91;94653.19;4990031;28;20865;-71
2023/06/12 02:58:17;;;;;;;12.43;7.47;;;;;;;18.21;96.55;94654.50;4990394;28;20620;-70
2023/06/12 03:00:43;;;;;;;12.03;7.77;;;;;;;18.27;95.98;94658.78;5005574;28;20207;-70
2023/06/12 03:03:09;;;;;;;12.87;7.30;;;;;;;18.17;96.42;94662.13;5006607;28;20183;-71
2023/06/12 03:05:36;;;;;;;12.50;7.67;;;;;;;18.10;96.72;94658.91;4989450;28;20250;-71
2023/06/12 03:08:04;;;;;;;11.17;7.23;;;;;;;18.19;96.50;94661.91;5006934;28;20768;-70
2023/06/12 03:10:30;;;;;;;10.37;7.20;;;;;;;18.33;95.68;94665.72;4991538;28;20273;-71
2023/06/12 03:12:56;;;;;;;10.93;7.13;;;;;;;18.29;95.42;94666.47;4990583;28;20225;-71
2023/06/12 03:15:21;;;;;;;14.33;6.80;;;;;;;18.26;95.36;94667.78;5008849;28;20256;-71
2023/06/12 03:17:47;;;;;;;9.40;6.77;;;;;;;18.28;94.85;94664.88;5005638;28;20202;-71
2023/06/12 03:20:14;;;;;;;11.57;6.50;;;;;;;18.32;94.72;94661.47;5005813;28;20209;-70
2023/06/12 03:22:40;;;;;;;13.27;7.00;;;;;;;18.36;93.86;94665.22;4988571;28;20239;-71
2023/06/12 03:25:05;;;;;;;14.00;7.00;;;;;;;18.45;93.03;94666.34;4990493;28;20219;-71
2023/06/12 03:27:31;;;;;;;12.90;6.63;;;;;;;18.43;93.41;94668.47;4993058;28;20606;-70
2023/06/12 03:29:56;;;;;;;11.50;6.70;;;;;;;18.26;94.71;94673.09;4973813;28;20207;-71
2023/06/12 03:32:22;;;;;;;10.83;6.50;;;;;;;18.02;95.13;94666.50;4990195;28;20213;-71
2023/06/12 03:34:47;;;;;;;12.13;6.53;;;;;;;18.22;95.20;94666.69;4966309;28;20231;-76
2023/06/12 03:37:13;;;;;;;12.30;6.60;;;;;;;18.18;95.09;94666.41;4989541;28;20618;-77
2023/06/12 03:39:39;;;;;;;10.77;6.47;;;;;;;18.01;95.66;94659.59;4988721;28;20285;-76
2023/06/12 03:42:04;;;;;;;13.43;6.90;;;;;;;18.01;96.13;94665.72;5006393;28;20260;-77
2023/06/12 03:44:30;;;;;;;16.20;7.13;;;;;;;17.96;96.42;94662.25;5004873;28;20202;-77
2023/06/12 03:46:55;;;;;;;10.17;6.80;;;;;;;18.01;96.47;94667.56;4988550;28;20203;-75
2023/06/12 03:49:23;;;;;;;11.77;7.30;;;;;;;18.23;95.10;94665.63;5004904;28;20195;-77
2023/06/12 03:51:48;;;;;;;13.97;7.03;;;;;;;18.35;94.81;94663.63;5005039;28;20214;-75
2023/06/12 03:54:14;;;;;;;12.87;7.23;;;;;;;18.39;94.38;94656.75;4987733;28;20617;-76
2023/06/12 03:56:41;;;;;;;14.03;7.40;;;;;;;18.32;94.55;94661.47;5005126;28;20233;-76
2023/06/12 03:59:07;;;;;;;13.23;7.30;;;;;;;18.27;94.52;94658.78;5003467;28;20187;-75
2023/06/12 04:01:32;;;;;;;11.67;7.07;;;;;;;18.43;93.87;94655.19;4987650;28;20274;-76
2023/06/12 04:03:58;;;;;;;15.17;7.20;;;;;;;18.28;94.40;94662.22;4987581;28;20248;-77
2023/06/12 04:06:25;;;;;;;11.30;6.90;;;;;;;18.27;93.68;94658.78;4987808;28;20218;-78
2023/06/12 04:08:53;;;;;;;14.67;6.80;;;;;;;18.27;93.65;94668.59;5005309;28;20236;-77
2023/06/12 04:11:19;;;;;;;11.97;6.70;;;;;;;18.37;92.87;94664.16;5004267;28;20241;-77
2023/06/12 04:13:44;;;;;;;14.27;7.10;;;;;;;18.41;93.17;94664.47;4988228;28;20217;-78
2023/06/12 04:16:13;;;;;;;13.83;7.50;;;;;;;18.49;92.51;94664.81;4989143;28;20218;-77
2023/06/12 04:18:39;;;;;;;12.27;7.20;;;;;;;18.47;93.15;94656.31;4988252;28;20580;-78
2023/06/12 04:21:05;;;;;;;13.57;7.70;;;;;;;18.60;92.34;94658.53;5004323;28;20217;-77
2023/06/12 04:23:32;;;;;;;13.70;8.10;;;;;;;18.47;92.19;94658.16;4987258;28;20626;-77
2023/06/12 04:26:07;;;;;;;14.40;8.47;;;;;;;18.46;92.58;94657.34;4989107;28;20683;-77
2023/06/12 04:28:34;;;;;;;13.77;8.40;;;;;;;18.44;92.31;94654.13;5019381;28;20217;-76
2023/06/12 04:31:21;;;;;;;11.57;8.57;;;;;;;18.51;91.78;94657.41;5004236;28;21149;-78
2023/06/12 04:33:54;;;;;;;14.80;8.83;;;;;;;18.48;91.48;94665.06;5002896;28;20271;-78
2023/06/12 04:36:21;;;;;;;16.00;8.93;;;;;;;18.38;91.68;94659.66;5003818;28;20223;-77
2023/06/12 04:38:50;;;;;;;12.80;9.03;;;;;;;18.51;91.79;94660.03;4972465;28;20206;-79
2023/06/12 04:41:42;;;;;;;12.43;8.47;;;;;;;18.66;91.06;94652.19;4989277;28;20735;-78
2023/06/12 04:44:08;;;;;;;11.10;7.90;;;;;;;18.79;89.56;94651.75;4990035;28;20218;-77
2023/06/12 04:46:33;;;;;;;14.00;7.90;;;;;;;18.86;90.05;94654.19;4971351;28;20219;-77
2023/06/12 04:49:04;;;;;;;13.40;7.77;;;;;;;18.72;90.58;94653.81;5004562;28;20195;-76
2023/06/12 04:51:36;;;;;;;14.03;7.50;;;;;;;18.88;90.04;94659.22;5003836;28;20778;-78
2023/06/12 04:54:05;;;;;;;16.07;8.27;;;;;;;18.93;89.62;94657.41;5004037;28;20199;-77
2023/06/12 04:56:31;;;;;;;11.37;7.57;;;;;;;18.98;89.94;94652.13;5005758;28;20214;-77
2023/06/12 04:58:57;;;;;;;15.00;7.93;;;;;;;19.07;89.25;94647.13;5006084;28;20284;-77
2023/06/12 05:01:22;;;;;;;19.57;8.07;;;;;;;19.28;87.69;94646.13;4989797;28;20961;-77
2023/06/12 05:03:49;;;;;;;21.37;8.50;;;;;;;19.33;87.93;94656.78;5005650;28;20282;-77
2023/06/12 05:06:15;;;;;;;16.40;8.30;;;;;;;19.25;88.88;94649.34;5005781;28;20214;-78
2023/06/12 05:08:41;;;;;;;15.93;8.30;;;;;;;19.29;88.61;94651.22;5006350;28;20199;-77
2023/06/12 05:11:06;;;;;;;14.90;7.97;;;;;;;19.24;89.42;94663.66;4988154;28;20222;-77
2023/06/12 05:13:32;;;;;;;11.60;8.33;;;;;;;19.41;88.57;94661.63;4985831;28;20191;-77
2023/06/12 05:15:57;;;;;;;15.80;8.93;;;;;;;19.36;88.68;94657.09;5004066;28;20217;-77
2023/06/12 05:18:23;;;;;;;14.67;9.43;;;;;;;19.38;88.43;94662.16;4997371;28;21462;-77
2023/06/12 05:20:48;;;;;;;13.77;9.13;;;;;;;19.37;88.25;94658.69;5010430;28;20211;-77
2023/06/12 05:23:59;;;;;;;16.30;9.40;;;;;;;19.59;87.63;94666.47;4992790;28;20237;-79
2023/06/12 05:26:25;;;;;;;18.10;10.10;;;;;;;19.62;87.35;94668.59;4989615;28;20230;-77
2023/06/12 05:28:51;;;;;;;18.37;10.23;;;;;;;19.63;86.62;94667.53;5010533;28;20199;-76
2023/06/12 05:31:17;;;;;;;19.67;9.80;;;;;;;19.59;88.03;94666.47;5010375;28;20213;-76
2023/06/12 05:33:45;;;;;;;16.67;10.53;;;;;;;19.42;87.58;94660.56;5008942;28;20257;-76
2023/06/12 05:36:13;;;;;;;17.33;9.90;;;;;;;19.41;87.65;94667.75;5007493;28;20207;-78
2023/06/12 05:38:43;;;;;;;17.80;9.60;;;;;;;19.70;85.69;94665.44;5005937;28;20203;-77
2023/06/12 05:41:09;;;;;;;16.37;9.40;;;;;;;19.77;85.51;94681.94;5004749;28;20209;-77
2023/06/12 05:43:47;;;;;;;13.17;9.53;;;;;;;19.57;86.41;94673.88;5007272;28;20626;-77
2023/06/12 05:46:21;;;;;;;20.00;9.77;;;;;;;19.59;86.99;94677.06;5007991;28;20740;-78
2023/06/12 05:48:48;;;;;;;18.57;9.30;;;;;;;19.58;87.15;94672.84;5007813;28;20540;-77
2023/06/12 05:51:14;;;;;;;20.07;9.27;;;;;;;19.68;87.01;94675.50;4989320;28;20211;-78
2023/06/12 05:53:39;;;;;;;16.83;9.00;;;;;;;19.64;86.74;94674.44;5009065;28;20650;-78
2023/06/12 05:56:05;;;;;;;14.83;8.80;;;;;;;19.79;85.87;94669.19;5007428;28;20214;-77
2023/06/12 05:58:31;;;;;;;14.03;8.90;;;;;;;19.80;84.64;94662.78;5010076;28;20722;-78
2023/06/12 06:00:56;;;;;;;14.43;8.60;;;;;;;19.79;84.81;94674.50;5010101;28;20203;-77
2023/06/12 06:03:23;;;;;;;14.93;8.90;;;;;;;19.90;84.76;94673.44;5010241;28;20594;-77
2023/06/12 06:05:49;;;;;;;17.27;8.80;;;;;;;19.89;85.26;94673.72;4992495;28;20765;-78
2023/06/12 06:08:15;;;;;;;15.53;8.80;;;;;;;19.88;84.93;94672.91;4992849;28;20199;-78
2023/06/12 06:10:40;;;;;;;17.50;9.60;;;;;;;19.98;85.88;94674.78;4991866;28;20675;-77
2023/06/12 06:13:07;;;;;;;23.73;9.03;;;;;;;20.12;84.18;94675.88;5008643;28;20217;-78
2023/06/12 06:15:32;;;;;;;17.27;8.70;;;;;;;20.23;83.38;94672.16;5007547;28;20250;-72
2023/06/12 06:17:58;;;;;;;14.53;9.40;;;;;;;20.21;83.50;94670.81;4990692;28;20282;-73
2023/06/12 06:20:23;;;;;;;18.50;9.93;;;;;;;20.21;83.83;94668.16;4990395;28;20195;-71
2023/06/12 06:22:50;;;;;;;16.80;8.95;;;;;;;20.25;83.52;94669.28;5008577;28;20238;-72
2023/06/12 06:25:16;;;;;;;16.17;8.97;;;;;;;20.29;83.64;94680.97;4990567;28;20225;-71
2023/06/12 06:27:42;;;;;;;14.95;9.18;;;;;;;20.33;84.22;94671.38;4994599;28;20229;-70
2023/06/12 06:30:07;;;;;;;17.03;9.00;;;;;;;20.36;83.34;94669.00;5006937;28;20194;-71
2023/06/12 06:32:33;;;;;;;20.33;10.18;;;;;;;20.28;83.35;94674.03;4991084;28;20222;-71
2023/06/12 06:34:58;;;;;;;16.73;9.40;;;;;;;20.31;83.80;94681.50;4990965;28;20195;-70
2023/06/12 06:37:24;;;;;;;18.27;9.60;;;;;;;20.35;83.93;94671.94;4973153;28;20270;-71
2023/06/12 06:39:49;;;;;;;19.73;9.20;;;;;;;20.44;83.97;94673.78;4986353;28;20198;-73
2023/06/12 06:42:15;;;;;;;16.40;9.17;;;;;;;20.62;83.59;94669.78;4987469;28;20229;-71
2023/06/12 06:44:43;;;;;;;18.17;9.10;;;;;;;20.70;82.53;94671.91;5005940;28;20217;-73
2023/06/12 06:47:11;;;;;;;15.75;8.98;;;;;;;20.64;83.53;94673.78;5005826;28;20222;-72
2023/06/12 06:49:38;;;;;;;20.60;9.00;;;;;;;20.69;82.77;94672.97;4994046;28;20320;-71
2023/06/12 06:52:04;;;;;;;21.60;9.90;;;;;;;20.75;83.20;94669.25;5006079;28;20312;-72
2023/06/12 06:54:30;;;;;;;17.65;9.32;;;;;;;20.79;82.38;94676.41;4988907;28;20184;-71
2023/06/12 06:56:56;;;;;;;20.35;9.27;;;;;;;20.67;83.47;94673.25;5005602;28;20210;-70
2023/06/12 06:59:22;;;;;;;19.52;9.13;;;;;;;20.72;82.58;94664.47;4990058;28;20202;-71
2023/06/12 07:01:48;;;;;;;16.05;9.40;;;;;;;20.79;83.05;94670.28;5007550;28;20214;-71
2023/06/12 07:04:13;;;;;;;19.98;8.75;;;;;;;20.91;82.56;94668.16;4990138;28;20210;-71
2023/06/12 07:06:39;;;;;;;27.73;14.43;;;;;;;20.93;82.58;94666.00;4990039;28;20229;-72
2023/06/12 07:09:04;;;;;;;19.25;9.15;;;;;;;20.97;81.65;94659.06;5007143;28;20191;-70
2023/06/12 07:11:30;;;;;;;19.53;8.70;;;;;;;21.01;81.77;94664.66;5006958;28;20215;-71
2023/06/12 07:13:56;;;;;;;16.90;8.75;;;;;;;20.92;82.57;94671.63;4990547;28;20245;-71
2023/06/12 07:16:21;;;;;;;23.70;8.68;;;;;;;21.05;82.55;94665.75;5008358;28;20215;-71
2023/06/12 07:18:47;;;;;;;19.67;8.80;;;;;;;21.04;82.27;94664.91;4989630;28;20257;-71
2023/06/12 07:21:14;;;;;;;16.83;7.78;;;;;;;21.06;80.99;94672.66;4989092;28;20419;-71
2023/06/12 07:23:39;;;;;;;17.73;7.28;;;;;;;21.11;80.30;94668.09;4987685;28;20255;-71
2023/06/12 07:26:05;;;;;;;15.88;7.13;;;;;;;21.12;79.85;94667.06;5008267;28;20622;-71
2023/06/12 07:28:31;;;;;;;16.00;7.43;;;;;;;21.10;79.98;94665.72;4973571;28;20234;-69
2023/06/12 07:30:56;;;;;;;20.08;7.10;;;;;;;21.23;79.66;94663.28;4989969;28;20221;-70
2023/06/12 07:33:21;;;;;;;15.30;6.70;;;;;;;21.35;79.25;94663.78;4990431;28;20258;-70
2023/06/12 07:35:47;;;;;;;12.10;6.38;;;;;;;21.42;78.30;94666.16;4990317;28;20210;-70
2023/06/12 07:38:13;;;;;;;12.25;5.95;;;;;;;21.59;77.54;94671.91;4990947;28;20579;-72
2023/06/12 07:40:38;;;;;;;14.93;5.97;;;;;;;21.67;76.77;94666.03;4990294;28;20195;-71
2023/06/12 07:43:04;;;;;;;15.43;6.53;;;;;;;21.70;76.51;94670.81;5006202;28;20199;-71
2023/06/12 07:45:30;;;;;;;12.75;5.97;;;;;;;21.69;77.48;94665.75;4994493;28;20215;-72
2023/06/12 07:47:57;;;;;;;8.40;5.20;;;;;;;21.69;76.08;94668.41;4989435;28;20623;-71
2023/06/12 07:50:26;;;;;;;11.32;5.28;;;;;;;21.67;74.66;94666.03;5005707;28;20190;-71
2023/06/12 07:52:52;;;;;;;12.95;5.57;;;;;;;21.74;75.34;94668.38;4990212;28;20194;-72
2023/06/12 07:55:18;;;;;;;12.13;5.88;;;;;;;21.81;74.81;94672.34;4972988;28;20183;-71
2023/06/12 07:57:43;;;;;;;8.57;5.13;;;;;;;21.83;73.82;94670.22;4989414;28;20226;-71
2023/06/12 08:00:09;;;;;;;12.02;5.50;;;;;;;21.86;73.94;94668.88;5005826;28;20281;-71
2023/06/12 08:02:35;;;;;;;12.88;4.97;;;;;;;21.92;73.36;94667.81;5005797;28;20277;-70
2023/06/12 08:05:03;;;;;;;8.75;5.00;;;;;;;21.94;74.62;94665.66;5004692;28;20778;-71
2023/06/12 08:07:30;;;;;;;10.48;5.40;;;;;;;22.04;75.45;94666.38;4988725;28;20755;-72
2023/06/12 08:09:56;;;;;;;10.40;5.28;;;;;;;22.13;74.24;94662.06;4989815;28;20186;-71
2023/06/12 08:12:21;;;;;;;7.68;4.93;;;;;;;22.19;72.92;94667.38;4988837;28;20243;-72
2023/06/12 08:14:48;;;;;;;9.45;5.40;;;;;;;22.26;72.31;94663.28;5005341;28;20294;-71
2023/06/12 08:17:14;;;;;;;13.43;5.70;;;;;;;22.41;71.54;94665.03;4973178;28;20215;-72
2023/06/12 08:19:41;;;;;;;8.50;5.07;;;;;;;22.46;71.96;94662.34;4989651;28;20183;-71
2023/06/12 08:22:11;;;;;;;10.75;4.90;;;;;;;22.58;70.67;94662.78;5004861;28;20802;-71
2023/06/12 08:24:37;;;;;;;11.85;5.75;;;;;;;22.64;71.70;94670.47;4973033;28;20243;-72
2023/06/12 08:27:03;;;;;;;10.13;5.38;;;;;;;22.76;70.44;94665.56;5005035;28;20302;-72
2023/06/12 08:29:28;;;;;;;8.98;5.65;;;;;;;22.91;70.53;94663.81;5004901;28;20198;-72
2023/06/12 08:31:54;;;;;;;11.30;5.63;;;;;;;22.81;70.27;94655.94;5005804;28;20207;-71
2023/06/12 08:34:24;;;;;;;12.00;5.68;;;;;;;22.98;70.10;94662.41;4989269;28;20639;-72
2023/06/12 08:36:50;;;;;;;10.00;5.28;;;;;;;22.97;70.40;94657.38;5004915;28;20213;-71
2023/06/12 08:39:15;;;;;;;14.43;5.63;;;;;;;23.03;71.29;94658.91;5005401;28;20665;-72
2023/06/12 08:41:44;;;;;;;10.85;5.20;;;;;;;22.96;69.97;94663.78;5004904;28;20253;-71
2023/06/12 08:44:10;;;;;;;6.97;4.93;;;;;;;23.03;70.03;94670.38;4988332;28;20344;-72
2023/06/12 08:46:35;;;;;;;12.40;5.10;;;;;;;23.01;68.08;94666.41;4988968;28;20725;-72
2023/06/12 08:49:01;;;;;;;7.95;5.15;;;;;;;22.92;68.93;94665.44;5005125;28;20191;-71
2023/06/12 08:51:28;;;;;;;9.65;5.13;;;;;;;22.85;69.20;94662.31;4989094;28;20214;-70
2023/06/12 08:53:53;;;;;;;13.75;5.38;;;;;;;22.95;68.48;94662.22;5008214;28;20191;-71
2023/06/12 08:56:19;;;;;;;11.40;5.40;;;;;;;22.99;67.50;94661.34;4975932;28;20218;-70
2023/06/12 08:58:45;;;;;;;11.23;5.10;;;;;;;23.16;67.20;94660.91;4992453;28;20668;-70
2023/06/12 09:01:12;;;;;;;12.30;5.40;;;;;;;23.38;67.79;94656.66;5009620;28;20214;-70
2023/06/12 09:03:37;;;;;;;11.50;5.53;;;;;;;23.71;66.85;94665.63;5008953;28;20205;-71
2023/06/12 09:06:05;;;;;;;11.45;5.47;;;;;;;23.80;64.93;94660.41;4992340;28;20218;-71
2023/06/12 09:08:31;;;;;;;12.68;5.22;;;;;;;23.79;65.01;94659.63;4992879;28;20209;-70
2023/06/12 09:10:57;;;;;;;10.68;5.20;;;;;;;23.59;64.60;94648.41;5009436;28;20218;-71
2023/06/12 09:13:23;;;;;;;7.68;4.72;;;;;;;23.30;66.71;94657.28;5007478;28;20194;-70
2023/06/12 09:15:52;;;;;;;11.10;5.72;;;;;;;23.14;67.63;94653.16;4991290;28;20207;-70
2023/06/12 09:18:19;;;;;;;9.50;5.82;;;;;;;23.01;69.05;94643.19;4974363;28;20202;-70
2023/06/12 09:20:44;;;;;;;11.43;5.82;;;;;;;22.96;71.14;94647.75;4992973;28;21127;-70
2023/06/12 09:23:11;;;;;;;16.38;6.05;;;;;;;22.82;71.12;94644.97;5008103;28;20242;-70
2023/06/12 09:25:41;;;;;;;12.02;5.95;;;;;;;22.72;72.17;94653.88;4975796;28;20253;-70
2023/06/12 09:28:08;;;;;;;12.30;6.15;;;;;;;22.59;73.69;94649.16;5008105;28;20188;-70
2023/06/12 09:30:41;;;;;;;13.43;6.30;;;;;;;22.82;73.32;94644.16;5008542;28;20766;-71
2023/06/12 09:33:07;;;;;;;12.10;6.07;;;;;;;23.00;71.70;94638.13;4992207;28;20272;-70
2023/06/12 09:35:33;;;;;;;10.90;5.90;;;;;;;23.11;71.01;94636.94;4991402;28;20269;-70
2023/06/12 09:37:58;;;;;;;10.30;5.50;;;;;;;23.04;70.16;94634.59;4992429;28;20209;-71
2023/06/12 09:40:26;;;;;;;10.02;5.10;;;;;;;23.01;69.44;94634.38;4991703;28;20209;-70
2023/06/12 09:42:52;;;;;;;9.48;5.30;;;;;;;23.03;69.77;94626.88;5009024;28;20183;-71
2023/06/12 09:45:20;;;;;;;8.73;4.90;;;;;;;23.16;69.47;94623.53;4976590;28;20616;-71
2023/06/12 09:47:50;;;;;;;9.00;4.93;;;;;;;23.07;68.40;94625.25;5009345;28;20203;-71
2023/06/12 09:50:16;;;;;;;9.48;4.78;;;;;;;23.06;67.47;94627.09;4990984;28;20251;-70
2023/06/12 09:52:43;;;;;;;9.02;5.00;;;;;;;23.19;67.82;94620.28;5008937;28;20215;-70
2023/06/12 09:55:18;;;;;;;13.00;6.40;;;;;;;23.34;69.86;94620.09;4992709;28;20680;-70
2023/06/12 09:57:53;;;;;;;12.40;6.30;;;;;;;23.47;69.90;94624.78;5008923;28;20306;-71
2023/06/12 10:00:19;;;;;;;10.32;5.95;;;;;;;23.66;70.81;94619.44;4992848;28;20194;-70
2023/06/12 10:03:00;;;;;;;13.30;6.50;;;;;;;23.64;69.50;94616.28;4992277;28;20212;-72
2023/06/12 10:05:41;;;;;;;10.48;5.90;;;;;;;23.45;68.23;94613.59;4990320;28;20203;-71
2023/06/12 10:08:07;;;;;;;8.98;5.82;;;;;;;23.51;69.01;94614.31;4975645;28;20238;-70
2023/06/12 10:10:34;;;;;;;9.40;5.13;;;;;;;23.51;68.11;94609.75;5007669;28;20199;-72
2023/06/12 10:13:00;;;;;;;10.73;5.40;;;;;;;23.49;67.85;94611.13;4991309;28;20952;-71
2023/06/12 10:15:26;;;;;;;8.43;5.40;;;;;;;23.37;69.20;94606.19;4991286;28;20183;-71
2023/06/12 10:17:52;;;;;;;8.07;5.28;;;;;;;23.20;70.00;94609.31;4991100;28;20253;-71
2023/06/12 10:20:18;;;;;;;8.68;4.95;;;;;;;23.06;69.52;94618.28;4991462;28;20184;-70
2023/06/12 10:22:44;;;;;;;7.25;4.88;;;;;;;22.96;68.34;94616.53;5007381;28;20338;-70
2023/06/12 10:25:09;;;;;;;10.25;4.82;;;;;;;22.92;67.33;94606.72;5006252;28;20203;-70
2023/06/12 10:27:36;;;;;;;7.93;4.60;;;;;;;22.91;66.66;94610.44;4990895;28;20211;-69
2023/06/12 10:30:02;;;;;;;7.60;4.35;;;;;;;23.03;68.20;94603.63;5006837;28;20194;-70
2023/06/12 10:32:31;;;;;;;7.80;4.10;;;;;;;22.91;66.80;94608.56;4990428;28;20218;-70
2023/06/12 10:34:56;;;;;;;6.13;4.18;;;;;;;22.92;64.11;94607.50;4974204;28;20227;-71
2023/06/12 10:37:32;;;;;;;9.23;4.53;;;;;;;22.91;65.20;94610.44;4974237;28;20589;-70
2023/06/12 10:40:14;;;;;;;8.77;4.32;;;;;;;22.87;62.91;94607.56;4990566;28;20195;-69
2023/06/12 10:42:40;;;;;;;6.55;3.78;;;;;;;22.88;61.24;94605.69;5007421;28;20226;-70
2023/06/12 10:45:26;;;;;;;4.78;3.80;;;;;;;22.90;61.99;94608.88;5022788;28;20214;-71
2023/06/12 10:48:14;;;;;;;5.72;3.90;;;;;;;22.88;62.98;94603.78;5006882;28;20272;-71
2023/06/12 10:50:44;;;;;;;7.15;4.30;;;;;;;22.88;64.35;94605.69;5023534;28;20253;-71
2023/06/12 10:53:23;;;;;;;5.90;3.92;;;;;;;22.86;65.83;94608.63;5007971;28;20789;-70
2023/06/12 10:55:53;;;;;;;6.18;3.95;;;;;;;22.84;65.07;94604.66;5006026;28;20214;-71
2023/06/12 10:58:19;;;;;;;10.30;4.13;;;;;;;22.89;63.96;94607.25;4991334;28;20191;-71
2023/06/12 11:00:49;;;;;;;5.65;3.72;;;;;;;22.95;63.88;94593.56;4990522;28;20684;-71
2023/06/12 11:03:17;;;;;;;6.85;3.97;;;;;;;23.08;63.23;94592.09;4990613;28;20195;-70
2023/06/12 11:06:00;;;;;;;8.07;4.00;;;;;;;23.02;62.91;94588.72;5005634;28;20719;-69
2023/06/12 11:08:30;;;;;;;6.03;3.85;;;;;;;23.06;61.45;94581.72;4992488;28;20693;-72
2023/06/12 11:10:55;;;;;;;8.23;3.90;;;;;;;23.11;62.12;94576.31;4989548;28;20219;-72
2023/06/12 11:13:24;;;;;;;5.32;3.75;;;;;;;23.26;61.82;94575.34;5006272;28;20672;-70
2023/06/12 11:15:51;;;;;;;5.43;3.80;;;;;;;23.33;61.31;94578.44;4973761;28;20231;-72
2023/06/12 11:18:17;;;;;;;7.20;3.80;;;;;;;23.34;59.93;94578.16;4990148;28;20191;-70
2023/06/12 11:20:42;;;;;;;10.38;4.10;;;;;;;23.32;59.11;94577.66;5006211;28;20187;-70
2023/06/12 11:23:08;;;;;;;7.47;4.70;;;;;;;23.34;59.35;94574.69;4990551;28;20247;-71
2023/06/12 11:25:44;;;;;;;7.70;4.03;;;;;;;23.34;58.75;94575.47;5006344;28;20265;-72
2023/06/12 11:28:11;;;;;;;5.25;3.90;;;;;;;23.24;56.76;94572.94;5005645;28;20186;-71